createdAt,value
2022-12-13T00:01:37.344Z,8.37
2022-12-13T00:04:06.917Z,9.87
2022-12-13T00:06:34.917Z,9.17
2022-12-13T00:09:03.570Z,9.43
2022-12-13T00:11:30.979Z,11.20
2022-12-13T00:13:58.465Z,9.90
2022-12-13T00:16:27.733Z,10.53
2022-12-13T00:18:57.674Z,10.17
2022-12-13T00:21:28.617Z,9.63
2022-12-13T00:23:56.607Z,8.07
2022-12-13T00:26:27.343Z,9.10
2022-12-13T00:28:55.522Z,9.03
2022-12-13T00:31:56.796Z,7.43
2022-12-13T00:34:12.120Z,7.30
2022-12-13T00:36:39.555Z,10.10
2022-12-13T00:39:07.113Z,10.03
2022-12-13T00:41:36.413Z,9.83
2022-12-13T00:44:04.988Z,8.90
2022-12-13T00:46:32.908Z,8.90
2022-12-13T00:49:02.192Z,7.73
2022-12-13T00:51:31.586Z,8.57
2022-12-13T00:54:00.470Z,8.33
2022-12-13T00:56:31.258Z,11.67
2022-12-13T00:58:59.205Z,7.50
2022-12-13T01:01:31.947Z,8.23
2022-12-13T01:04:01.799Z,7.83
2022-12-13T01:06:39.062Z,8.27
2022-12-13T01:09:10.495Z,6.57
2022-12-13T01:11:37.814Z,5.77
2022-12-13T01:14:08.152Z,7.93
2022-12-13T01:16:35.623Z,8.00
2022-12-13T01:19:02.939Z,7.27
2022-12-13T01:21:30.403Z,6.77
2022-12-13T01:24:07.682Z,8.20
2022-12-13T01:26:35.297Z,8.47
2022-12-13T01:29:05.896Z,6.57
2022-12-13T01:31:34.168Z,7.30
2022-12-13T01:34:10.894Z,7.93
2022-12-13T01:36:43.238Z,6.57
2022-12-13T01:39:14.590Z,9.60
2022-12-13T01:41:44.086Z,7.37
2022-12-13T01:44:49.270Z,8.43
2022-12-13T01:47:21.174Z,7.40
2022-12-13T01:49:48.874Z,7.17
2022-12-13T01:52:17.305Z,7.93
2022-12-13T01:54:48.629Z,7.70
2022-12-13T01:57:18.450Z,8.43
2022-12-13T01:59:46.862Z,9.57
2022-12-13T02:02:15.866Z,10.27
2022-12-13T02:05:11.951Z,9.27
2022-12-13T02:07:42.927Z,9.37
2022-12-13T02:10:11.206Z,9.27
2022-12-13T02:12:40.318Z,8.07
2022-12-13T02:15:14.886Z,9.33
2022-12-13T02:18:05.563Z,7.43
2022-12-13T02:21:08.091Z,9.17
2022-12-13T02:23:59.938Z,10.07
2022-12-13T02:27:30.276Z,8.63
2022-12-13T02:30:39.535Z,9.83
2022-12-13T02:33:37.206Z,9.60
2022-12-13T02:36:27.283Z,8.07
2022-12-13T02:39:03.007Z,10.37
2022-12-13T02:41:46.562Z,7.80
2022-12-13T02:44:22.652Z,10.20
2022-12-13T02:46:58.481Z,8.57
2022-12-13T02:49:31.365Z,10.23
2022-12-13T02:52:01.385Z,8.70
2022-12-13T02:54:28.656Z,10.03
2022-12-13T02:56:59.972Z,8.33
2022-12-13T02:59:36.675Z,10.23
2022-12-13T03:02:31.305Z,8.20
2022-12-13T03:05:46.362Z,11.33
2022-12-13T03:08:28.729Z,8.00
2022-12-13T03:11:00.405Z,8.43
2022-12-13T03:13:55.207Z,8.10
2022-12-13T03:16:27.677Z,7.60
2022-12-13T03:18:59.654Z,7.93
2022-12-13T03:21:27.318Z,6.57
2022-12-13T03:23:54.904Z,8.13
2022-12-13T03:26:25.507Z,6.67
2022-12-13T03:28:54.163Z,8.10
2022-12-13T03:31:21.706Z,7.47
2022-12-13T03:33:49.005Z,7.17
2022-12-13T03:36:16.991Z,8.33
2022-12-13T03:38:45.268Z,8.57
2022-12-13T03:41:19.063Z,12.63
2022-12-13T03:43:47.168Z,8.87
2022-12-13T03:46:14.737Z,7.73
2022-12-13T03:48:42.104Z,9.60
2022-12-13T03:51:09.568Z,7.10
2022-12-13T03:53:36.934Z,7.80
2022-12-13T03:56:06.298Z,8.37
2022-12-13T03:58:37.773Z,7.33
2022-12-13T04:01:10.830Z,9.53
2022-12-13T04:03:39.236Z,8.70
2022-12-13T04:06:08.111Z,8.33
2022-12-13T04:08:36.679Z,9.33
2022-12-13T04:11:25.635Z,8.53
2022-12-13T04:13:54.137Z,10.50
2022-12-13T04:16:22.841Z,8.73
2022-12-13T04:18:50.621Z,11.00
2022-12-13T04:21:17.861Z,13.90
2022-12-13T04:23:45.257Z,8.60
2022-12-13T04:26:12.786Z,8.93
2022-12-13T04:28:40.121Z,7.83
2022-12-13T04:31:07.730Z,7.60
2022-12-13T04:33:35.206Z,9.57
2022-12-13T04:36:02.675Z,10.03
2022-12-13T04:38:29.994Z,18.83
2022-12-13T04:41:15.675Z,12.10
2022-12-13T04:43:43.186Z,12.03
2022-12-13T04:46:10.914Z,10.03
2022-12-13T04:48:38.218Z,8.57
2022-12-13T04:51:06.271Z,9.40
2022-12-13T04:53:33.749Z,7.87
2022-12-13T04:56:07.341Z,10.47
2022-12-13T04:58:34.782Z,8.93
2022-12-13T05:01:02.114Z,9.70
2022-12-13T05:03:29.624Z,9.60
2022-12-13T05:05:57.226Z,9.97
2022-12-13T05:08:24.666Z,13.93
2022-12-13T05:10:51.911Z,14.37
2022-12-13T05:13:19.201Z,11.20
2022-12-13T05:15:55.327Z,13.43
2022-12-13T05:18:23.661Z,9.43
2022-12-13T05:20:54.078Z,8.87
2022-12-13T05:23:23.831Z,10.20
2022-12-13T05:25:52.348Z,14.77
2022-12-13T05:28:27.652Z,28.00
2022-12-13T05:31:00.402Z,118.23
2022-12-13T05:33:27.669Z,41.80
2022-12-13T05:35:59.371Z,23.37
2022-12-13T05:38:27.989Z,21.03
2022-12-13T05:40:55.582Z,17.30
2022-12-13T05:43:24.234Z,15.70
2022-12-13T05:46:11.607Z,15.07
2022-12-13T05:48:38.994Z,13.13
2022-12-13T05:51:09.693Z,11.90
2022-12-13T05:53:40.264Z,14.23
2022-12-13T05:56:08.621Z,17.47
2022-12-13T05:58:37.522Z,12.07
2022-12-13T06:01:09.507Z,10.07
2022-12-13T06:03:37.292Z,13.33
2022-12-13T06:06:06.633Z,14.87
2022-12-13T06:08:34.056Z,10.67
2022-12-13T06:11:11.758Z,13.90
2022-12-13T06:13:42.580Z,9.80
2022-12-13T06:16:23.379Z,13.93
2022-12-13T06:19:00.974Z,21.23
2022-12-13T06:21:41.582Z,11.53
2022-12-13T06:24:15.453Z,11.60
2022-12-13T06:26:45.124Z,9.37
2022-12-13T06:29:22.513Z,10.10
2022-12-13T06:32:03.895Z,11.37
2022-12-13T06:34:36.438Z,11.50
2022-12-13T06:37:07.290Z,8.90
2022-12-13T06:39:35.919Z,9.90
2022-12-13T06:42:07.871Z,11.70
2022-12-13T06:44:35.635Z,9.10
2022-12-13T06:47:10.731Z,11.80
2022-12-13T06:49:41.946Z,11.87
2022-12-13T06:52:12.922Z,12.83
2022-12-13T06:54:41.082Z,12.80
2022-12-13T06:57:08.537Z,23.17
2022-12-13T06:59:35.998Z,27.47
2022-12-13T07:02:04.126Z,38.70
2022-12-13T07:04:33.139Z,26.40
2022-12-13T07:07:01.552Z,31.80
2022-12-13T07:09:33.096Z,22.53
2022-12-13T07:12:00.815Z,20.70
2022-12-13T07:14:28.149Z,12.33
2022-12-13T07:17:01.400Z,12.70
2022-12-13T07:19:42.347Z,13.53
2022-12-13T07:22:09.769Z,12.80
2022-12-13T07:24:37.268Z,13.33
2022-12-13T07:27:05.233Z,12.57
2022-12-13T07:29:32.590Z,14.43
2022-12-13T07:32:01.172Z,12.27
2022-12-13T07:34:30.786Z,16.00
2022-12-13T07:36:59.159Z,13.67
2022-12-13T07:39:26.824Z,15.07
2022-12-13T07:41:55.923Z,14.17
2022-12-13T07:44:23.861Z,15.23
2022-12-13T07:46:51.244Z,17.93
2022-12-13T07:49:18.690Z,16.03
2022-12-13T07:51:45.923Z,15.13
2022-12-13T07:54:13.148Z,13.23
2022-12-13T07:56:40.416Z,14.97
2022-12-13T07:59:07.695Z,14.97
2022-12-13T08:01:35.386Z,16.20
2022-12-13T08:04:06.859Z,16.07
2022-12-13T08:06:38.489Z,12.73
2022-12-13T08:09:06.750Z,14.80
2022-12-13T08:11:34.181Z,21.40
2022-12-13T08:14:01.644Z,19.57
2022-12-13T08:16:29.846Z,11.17
2022-12-13T08:19:01.950Z,9.53
2022-12-13T08:21:56.724Z,13.10
2022-12-13T08:24:30.123Z,13.00
2022-12-13T08:27:03.023Z,13.40
2022-12-13T08:29:33.368Z,13.07
2022-12-13T08:32:08.011Z,12.60
2022-12-13T08:34:35.852Z,13.27
2022-12-13T08:37:04.327Z,15.60
2022-12-13T08:39:35.941Z,13.13
2022-12-13T08:42:16.504Z,13.23
2022-12-13T08:44:50.827Z,12.97
2022-12-13T08:47:22.625Z,15.10
2022-12-13T08:49:51.312Z,15.00
2022-12-13T08:52:20.245Z,13.90
2022-12-13T08:54:47.553Z,12.67
2022-12-13T08:57:14.853Z,11.80
2022-12-13T08:59:42.503Z,15.50
2022-12-13T09:02:19.101Z,15.83
2022-12-13T09:04:46.498Z,14.90
2022-12-13T09:07:13.966Z,18.17
2022-12-13T09:09:41.224Z,17.03
2022-12-13T09:12:10.523Z,16.77
2022-12-13T09:14:45.340Z,16.57
2022-12-13T09:17:24.225Z,15.67
2022-12-13T09:19:58.098Z,14.87
2022-12-13T09:22:33.219Z,13.63
2022-12-13T09:25:03.090Z,13.77
2022-12-13T09:27:39.853Z,11.80
2022-12-13T09:30:09.235Z,12.50
2022-12-13T09:32:36.656Z,13.60
2022-12-13T09:35:03.934Z,11.63
2022-12-13T09:37:31.210Z,10.17
2022-12-13T09:39:58.523Z,9.23
2022-12-13T09:42:48.610Z,10.03
2022-12-13T09:45:22.585Z,10.40
2022-12-13T09:48:03.106Z,10.03
2022-12-13T09:50:46.387Z,9.07
2022-12-13T09:53:22.121Z,9.47
2022-12-13T09:55:52.606Z,9.17
2022-12-13T09:58:26.039Z,7.80
2022-12-13T10:00:54.848Z,8.47
2022-12-13T10:03:24.682Z,9.97
2022-12-13T10:06:13.355Z,10.40
2022-12-13T10:08:50.500Z,9.17
2022-12-13T10:11:31.491Z,8.47
2022-12-13T10:14:21.851Z,8.53
2022-12-13T10:16:55.511Z,9.70
2022-12-13T10:19:41.213Z,7.67
2022-12-13T10:22:17.078Z,11.07
2022-12-13T10:25:06.289Z,8.03
2022-12-13T10:27:45.722Z,8.07
2022-12-13T10:30:28.783Z,8.20
2022-12-13T10:32:58.981Z,8.37
2022-12-13T10:35:29.328Z,8.37
2022-12-13T10:37:59.945Z,9.63
2022-12-13T10:40:36.526Z,7.13
2022-12-13T10:43:21.015Z,6.50
2022-12-13T10:45:59.024Z,7.77
2022-12-13T10:48:46.982Z,7.10
2022-12-13T10:51:18.109Z,7.97
2022-12-13T10:53:54.935Z,8.00
2022-12-13T10:56:24.656Z,8.40
2022-12-13T10:59:30.224Z,7.00
2022-12-13T11:01:57.870Z,7.70
2022-12-13T11:04:35.525Z,9.93
2022-12-13T11:07:24.488Z,6.87
2022-12-13T11:09:52.783Z,7.73
2022-12-13T11:12:28.267Z,8.00
2022-12-13T11:15:00.992Z,11.23
2022-12-13T11:17:30.907Z,10.57
2022-12-13T11:20:15.998Z,8.63
2022-12-13T11:22:44.589Z,9.00
2022-12-13T11:25:17.731Z,8.50
2022-12-13T11:28:03.901Z,8.70
2022-12-13T11:31:13.603Z,9.33
2022-12-13T11:34:01.343Z,10.57
2022-12-13T11:36:48.802Z,8.80
2022-12-13T11:39:32.895Z,9.43
2022-12-13T11:42:26.526Z,7.53
2022-12-13T11:45:23.173Z,8.43
2022-12-13T11:48:21.023Z,9.77
2022-12-13T11:50:54.882Z,8.57
2022-12-13T11:53:30.908Z,9.10
2022-12-13T11:56:19.284Z,8.80
2022-12-13T11:59:23.801Z,9.33
2022-12-13T12:02:29.693Z,8.67
2022-12-13T12:05:01.032Z,11.23
2022-12-13T12:07:48.357Z,10.63
2022-12-13T12:10:29.856Z,10.23
2022-12-13T12:13:07.633Z,9.47
2022-12-13T12:15:43.270Z,8.97
2022-12-13T12:18:17.254Z,8.87
2022-12-13T12:21:08.211Z,9.57
2022-12-13T12:24:05.605Z,8.03
2022-12-13T12:27:01.000Z,10.97
2022-12-13T12:29:49.875Z,10.30
2022-12-13T12:32:46.682Z,15.77
2022-12-13T12:35:22.762Z,13.10
2022-12-13T12:38:08.613Z,34.50
2022-12-13T12:41:17.725Z,13.97
2022-12-13T12:43:49.782Z,12.63
2022-12-13T12:47:01.384Z,12.70
2022-12-13T12:50:06.460Z,18.50
2022-12-13T12:52:39.780Z,11.80
2022-12-13T12:55:12.254Z,16.30
2022-12-13T12:57:46.926Z,13.50
2022-12-13T13:00:20.883Z,13.40
2022-12-13T13:02:48.242Z,16.53
2022-12-13T13:05:24.884Z,12.90
2022-12-13T13:08:05.552Z,15.13
2022-12-13T13:10:33.236Z,11.60
2022-12-13T13:13:12.000Z,12.43
2022-12-13T13:15:40.535Z,11.50
2022-12-13T13:18:46.459Z,13.03
2022-12-13T13:21:32.001Z,12.63
2022-12-13T13:24:01.992Z,11.67
2022-12-13T13:26:35.995Z,11.30
2022-12-13T13:29:28.742Z,12.57
2022-12-13T13:32:01.583Z,14.93
2022-12-13T13:34:31.079Z,14.57
2022-12-13T13:36:59.353Z,13.40
2022-12-13T13:39:29.376Z,15.03
2022-12-13T13:42:10.657Z,17.13
2022-12-13T13:44:49.944Z,14.10
2022-12-13T13:47:37.086Z,16.37
2022-12-13T13:50:12.745Z,14.43
2022-12-13T13:53:20.005Z,15.20
2022-12-13T13:56:07.432Z,13.73
2022-12-13T13:59:06.586Z,14.50
2022-12-13T14:02:10.947Z,14.77
2022-12-13T14:05:16.926Z,18.43
2022-12-13T14:07:51.941Z,14.53
2022-12-13T14:10:49.625Z,18.40
2022-12-13T14:13:44.919Z,16.07
2022-12-13T14:16:33.546Z,16.33
2022-12-13T14:19:22.301Z,15.30
2022-12-13T14:22:03.397Z,18.10
2022-12-13T14:25:06.868Z,18.07
2022-12-13T14:28:02.677Z,16.13
2022-12-13T14:30:30.096Z,15.20
2022-12-13T14:32:57.758Z,18.37
2022-12-13T14:35:31.585Z,19.77
2022-12-13T14:38:04.988Z,15.70
2022-12-13T14:40:37.560Z,15.70
2022-12-13T14:43:05.401Z,16.43
2022-12-13T14:45:43.717Z,14.87
2022-12-13T14:48:16.179Z,31.33
2022-12-13T14:50:58.342Z,47.20
2022-12-13T14:53:29.813Z,50.70
2022-12-13T14:56:28.080Z,51.67
2022-12-13T14:59:05.597Z,47.23
2022-12-13T15:01:35.239Z,68.00
2022-12-13T15:04:27.252Z,119.03
2022-12-13T15:07:08.237Z,79.23
2022-12-13T15:09:40.577Z,48.43
2022-12-13T15:12:25.383Z,42.20
2022-12-13T15:15:09.076Z,41.00
2022-12-13T15:17:40.939Z,123.87
2022-12-13T15:20:22.620Z,181.37
2022-12-13T15:23:02.517Z,111.30
2022-12-13T15:25:30.743Z,87.63
2022-12-13T15:27:58.789Z,112.77
2022-12-13T15:30:36.339Z,196.03
2022-12-13T15:33:05.739Z,202.17
2022-12-13T15:35:34.692Z,186.53
2022-12-13T15:38:02.279Z,170.23
2022-12-13T15:40:30.189Z,178.13
2022-12-13T15:42:58.655Z,165.77
2022-12-13T15:45:34.787Z,202.97
2022-12-13T15:48:05.717Z,218.77
2022-12-13T15:50:42.525Z,235.33
2022-12-13T15:53:29.346Z,222.03
2022-12-13T15:55:57.092Z,244.97
2022-12-13T15:58:36.608Z,315.63
2022-12-13T16:01:07.166Z,332.07
2022-12-13T16:03:47.417Z,338.10
2022-12-13T16:06:22.723Z,192.20
2022-12-13T16:08:57.645Z,196.23
2022-12-13T16:11:48.588Z,299.60
2022-12-13T16:14:30.855Z,464.87
2022-12-13T16:17:13.243Z,526.97
2022-12-13T16:19:40.564Z,464.97
2022-12-13T16:22:16.093Z,449.67
2022-12-13T16:24:43.466Z,395.10
2022-12-13T16:27:10.695Z,302.73
2022-12-13T16:29:38.106Z,316.17
2022-12-13T16:32:07.891Z,245.53
2022-12-13T16:34:37.320Z,229.97
2022-12-13T16:37:08.867Z,181.33
2022-12-13T16:39:53.275Z,202.17
2022-12-13T16:42:21.006Z,190.53
2022-12-13T16:45:05.832Z,220.43
2022-12-13T16:47:48.105Z,190.83
2022-12-13T16:50:19.537Z,197.57
2022-12-13T16:52:47.355Z,172.67
2022-12-13T16:55:15.100Z,177.83
2022-12-13T16:57:42.501Z,191.67
2022-12-13T17:00:13.244Z,188.00
2022-12-13T17:02:41.257Z,187.30
2022-12-13T17:05:09.193Z,169.70
2022-12-13T17:07:36.575Z,174.67
2022-12-13T17:10:05.491Z,344.70
2022-12-13T17:12:32.765Z,245.07
2022-12-13T17:15:00.090Z,306.43
2022-12-13T17:17:27.598Z,300.93
2022-12-13T17:19:54.985Z,148.57
2022-12-13T17:22:22.534Z,181.67
2022-12-13T17:24:50.285Z,187.63
2022-12-13T17:27:18.609Z,166.97
2022-12-13T17:29:48.314Z,174.80
2022-12-13T17:32:15.727Z,102.43
2022-12-13T17:34:43.338Z,76.67
2022-12-13T17:37:10.936Z,75.70
2022-12-13T17:39:38.533Z,134.27
2022-12-13T17:42:06.786Z,215.77
2022-12-13T17:44:34.458Z,263.57
2022-12-13T17:47:01.777Z,284.80
2022-12-13T17:49:29.196Z,228.80
2022-12-13T17:51:57.470Z,221.43
2022-12-13T17:54:26.102Z,189.90
2022-12-13T17:56:54.681Z,176.50
2022-12-13T17:59:22.800Z,166.30
2022-12-13T18:01:50.859Z,164.77
2022-12-13T18:04:18.809Z,166.27
2022-12-13T18:06:46.958Z,162.30
2022-12-13T18:09:14.494Z,246.07
2022-12-13T18:11:42.164Z,400.33
2022-12-13T18:14:09.654Z,285.83
2022-12-13T18:16:38.738Z,236.83
2022-12-13T18:19:13.458Z,315.93
2022-12-13T18:21:41.330Z,448.50
2022-12-13T18:24:09.780Z,297.57
2022-12-13T18:26:37.049Z,267.87
2022-12-13T18:29:06.246Z,246.27
2022-12-13T18:31:33.813Z,213.03
2022-12-13T18:34:02.179Z,256.10
2022-12-13T18:36:30.339Z,244.03
2022-12-13T18:38:57.740Z,310.17
2022-12-13T18:41:28.633Z,451.67
2022-12-13T18:44:02.356Z,441.70
2022-12-13T18:46:32.331Z,264.47
2022-12-13T18:49:00.089Z,228.83
2022-12-13T18:51:28.934Z,225.47
2022-12-13T18:53:56.523Z,220.33
2022-12-13T18:56:25.026Z,243.97
2022-12-13T18:58:52.711Z,205.33
2022-12-13T19:01:20.552Z,209.10
2022-12-13T19:03:49.615Z,319.60
2022-12-13T19:06:24.425Z,312.33
2022-12-13T19:08:54.556Z,272.60
2022-12-13T19:11:22.802Z,256.57
2022-12-13T19:13:50.884Z,240.10
2022-12-13T19:16:21.347Z,253.13
2022-12-13T19:18:49.250Z,228.83
2022-12-13T19:21:19.574Z,308.43
2022-12-13T19:23:54.942Z,370.77
2022-12-13T19:26:24.510Z,265.23
2022-12-13T19:28:52.107Z,199.80
2022-12-13T19:31:19.689Z,184.73
2022-12-13T19:33:48.395Z,244.13
2022-12-13T19:36:16.119Z,286.10
2022-12-13T19:38:43.905Z,236.27
2022-12-13T19:41:19.516Z,211.03
2022-12-13T19:43:53.000Z,249.70
2022-12-13T19:46:22.508Z,296.50
2022-12-13T19:48:50.611Z,292.67
2022-12-13T19:51:18.313Z,235.63
2022-12-13T19:53:45.698Z,225.37
2022-12-13T19:56:17.907Z,230.80
2022-12-13T19:58:47.185Z,274.57
2022-12-13T20:01:15.408Z,249.80
2022-12-13T20:03:45.895Z,212.80
2022-12-13T20:06:18.872Z,243.47
2022-12-13T20:08:46.750Z,215.57
2022-12-13T20:11:17.445Z,219.90
2022-12-13T20:13:48.931Z,225.93
2022-12-13T20:16:19.149Z,249.70
2022-12-13T20:18:47.486Z,269.90
2022-12-13T20:21:15.551Z,272.33
2022-12-13T20:23:48.990Z,368.40
2022-12-13T20:26:20.387Z,401.40
2022-12-13T20:28:48.877Z,364.77
2022-12-13T20:31:19.630Z,434.13
2022-12-13T20:33:47.943Z,491.67
2022-12-13T20:36:26.472Z,288.67
2022-12-13T20:39:00.465Z,252.87
2022-12-13T20:41:30.017Z,211.77
2022-12-13T20:43:59.842Z,190.43
2022-12-13T20:46:28.347Z,188.30
2022-12-13T20:48:57.908Z,303.00
2022-12-13T20:51:27.571Z,403.20
2022-12-13T20:53:55.551Z,284.50
2022-12-13T20:56:35.651Z,270.40
2022-12-13T20:59:05.016Z,248.37
2022-12-13T21:01:36.410Z,219.07
2022-12-13T21:04:05.802Z,216.57
2022-12-13T21:06:35.864Z,206.87
2022-12-13T21:09:04.454Z,211.87
2022-12-13T21:11:35.558Z,215.93
2022-12-13T21:14:09.200Z,223.67
2022-12-13T21:16:43.519Z,231.23
2022-12-13T21:19:17.022Z,230.93
2022-12-13T21:21:44.360Z,240.93
2022-12-13T21:24:16.363Z,214.17
2022-12-13T21:26:45.010Z,165.87
2022-12-13T21:29:13.585Z,211.93
2022-12-13T21:31:48.818Z,211.00
2022-12-13T21:34:17.976Z,150.50
2022-12-13T21:36:48.065Z,147.97
2022-12-13T21:39:21.470Z,144.27
2022-12-13T21:41:49.088Z,168.27
2022-12-13T21:44:18.378Z,155.33
2022-12-13T21:49:34.166Z,163.43
2022-12-13T21:52:01.528Z,158.57
2022-12-13T21:54:28.722Z,149.40
2022-12-13T21:57:14.774Z,143.77
2022-12-13T21:59:42.108Z,173.07
2022-12-13T22:02:18.859Z,167.67
2022-12-13T22:04:55.835Z,226.97
2022-12-13T22:07:28.739Z,248.20
2022-12-13T22:09:57.259Z,225.00
2022-12-13T22:12:31.666Z,260.50
2022-12-13T22:14:58.908Z,274.93
2022-12-13T22:17:34.770Z,247.27
2022-12-13T22:20:05.954Z,271.27
2022-12-13T22:22:33.485Z,320.43
2022-12-13T22:25:00.891Z,303.87
2022-12-13T22:27:28.181Z,297.07
2022-12-13T22:29:57.819Z,386.43
2022-12-13T22:32:27.285Z,548.27
2022-12-13T22:34:55.046Z,563.37
2022-12-13T22:37:23.030Z,548.87
2022-12-13T22:39:50.778Z,528.23
2022-12-13T22:42:17.987Z,557.30
2022-12-13T22:44:45.701Z,426.73
2022-12-13T22:47:13.132Z,350.13
2022-12-13T22:49:40.410Z,347.70
2022-12-13T22:52:08.316Z,409.57
2022-12-13T22:54:36.091Z,419.33
2022-12-13T22:57:04.014Z,481.20
2022-12-13T22:59:31.359Z,486.47
2022-12-13T23:02:02.538Z,454.93
2022-12-13T23:04:32.113Z,389.70
2022-12-13T23:06:59.497Z,463.70
2022-12-13T23:09:26.848Z,413.67
2022-12-13T23:12:12.962Z,292.00
2022-12-13T23:14:40.362Z,202.23
2022-12-13T23:17:07.856Z,206.67
2022-12-13T23:19:49.744Z,243.67
2022-12-13T23:22:25.396Z,292.47
2022-12-13T23:24:53.229Z,303.73
2022-12-13T23:27:23.029Z,289.37
2022-12-13T23:29:50.457Z,291.63
2022-12-13T23:32:17.830Z,346.07
2022-12-13T23:34:45.077Z,388.43
2022-12-13T23:37:12.295Z,315.90
2022-12-13T23:39:39.641Z,248.53
2022-12-13T23:42:07.514Z,298.53
2022-12-13T23:44:34.888Z,279.40
2022-12-13T23:47:02.387Z,280.67
2022-12-13T23:49:29.606Z,236.73
2022-12-13T23:51:56.845Z,201.07
2022-12-13T23:54:24.159Z,187.43
2022-12-13T23:56:51.777Z,185.03
2022-12-13T23:59:19.222Z,178.97
